createdAt,value
2018-04-24T00:01:04.487Z,75.47
2018-04-24T00:03:30.958Z,78.80
2018-04-24T00:05:57.354Z,78.78
2018-04-24T00:08:23.752Z,76.10
2018-04-24T00:10:50.195Z,77.06
2018-04-24T00:13:16.614Z,76.27
2018-04-24T00:15:43.078Z,77.39
2018-04-24T00:18:09.529Z,79.62
2018-04-24T00:20:35.870Z,78.48
2018-04-24T00:23:02.288Z,80.83
2018-04-24T00:25:28.623Z,79.76
2018-04-24T00:27:55.108Z,80.97
2018-04-24T00:30:21.444Z,81.39
2018-04-24T00:32:47.760Z,81.62
2018-04-24T00:35:14.085Z,81.05
2018-04-24T00:37:40.481Z,81.42
2018-04-24T00:40:06.953Z,82.25
2018-04-24T00:42:33.293Z,81.16
2018-04-24T00:44:59.688Z,82.19
2018-04-24T00:47:26.052Z,81.84
2018-04-24T00:49:52.467Z,82.52
2018-04-24T00:52:18.842Z,82.00
2018-04-24T00:54:45.221Z,81.44
2018-04-24T00:57:11.579Z,82.72
2018-04-24T00:59:38.065Z,82.67
2018-04-24T01:02:04.420Z,83.33
2018-04-24T01:04:30.761Z,82.86
2018-04-24T01:06:57.089Z,83.29
2018-04-24T01:09:23.573Z,82.08
2018-04-24T01:11:49.941Z,80.22
2018-04-24T01:14:16.301Z,80.55
2018-04-24T01:16:42.642Z,80.15
2018-04-24T01:19:09.029Z,81.92
2018-04-24T01:21:35.365Z,82.18
2018-04-24T01:24:01.844Z,82.63
2018-04-24T01:26:28.160Z,84.07
2018-04-24T01:28:55.575Z,83.51
2018-04-24T01:31:21.928Z,84.51
2018-04-24T01:33:48.262Z,83.38
2018-04-24T01:36:14.686Z,81.42
2018-04-24T01:38:41.100Z,85.17
2018-04-24T01:41:07.508Z,83.73
2018-04-24T01:43:33.862Z,85.00
2018-04-24T01:46:00.237Z,84.54
2018-04-24T01:48:26.773Z,85.52
2018-04-24T01:50:53.162Z,85.12
2018-04-24T01:53:19.592Z,85.69
2018-04-24T01:55:45.998Z,85.79
2018-04-24T01:58:12.450Z,86.57
2018-04-24T02:00:38.886Z,85.53
2018-04-24T02:03:05.234Z,86.02
2018-04-24T02:05:31.651Z,87.13
2018-04-24T02:07:58.133Z,86.07
2018-04-24T02:10:24.633Z,86.11
2018-04-24T02:12:51.071Z,86.65
2018-04-24T02:15:17.501Z,86.45
2018-04-24T02:17:43.819Z,86.33
2018-04-24T02:20:10.211Z,86.70
2018-04-24T02:22:36.648Z,87.56
2018-04-24T02:25:03.078Z,86.32
2018-04-24T02:27:29.459Z,87.50
2018-04-24T02:29:55.929Z,87.04
2018-04-24T02:32:22.349Z,87.32
2018-04-24T02:34:48.716Z,86.19
2018-04-24T02:37:15.097Z,86.00
2018-04-24T02:39:41.465Z,87.01
2018-04-24T02:42:07.809Z,85.69
2018-04-24T02:44:34.182Z,87.92
2018-04-24T02:47:00.505Z,88.22
2018-04-24T02:49:26.970Z,88.01
2018-04-24T02:51:53.431Z,87.74
2018-04-24T02:54:19.809Z,87.85
2018-04-24T02:56:46.238Z,88.19
2018-04-24T02:59:12.700Z,87.85
2018-04-24T03:01:39.028Z,87.29
2018-04-24T03:04:05.471Z,88.04
2018-04-24T03:06:31.857Z,87.50
2018-04-24T03:08:58.319Z,87.67
2018-04-24T03:11:24.671Z,88.16
2018-04-24T03:13:51.008Z,88.68
2018-04-24T03:16:17.412Z,88.49
2018-04-24T03:18:43.767Z,88.26
2018-04-24T03:21:10.236Z,88.79
2018-04-24T03:23:36.550Z,87.43
2018-04-24T03:26:02.939Z,88.43
2018-04-24T03:28:29.345Z,86.52
2018-04-24T03:30:55.679Z,87.45
2018-04-24T03:33:21.998Z,88.81
2018-04-24T03:35:48.351Z,87.97
2018-04-24T03:38:14.728Z,87.52
2018-04-24T03:40:41.165Z,88.43
2018-04-24T03:43:07.533Z,87.93
2018-04-24T03:45:34.066Z,88.62
2018-04-24T03:48:00.564Z,87.51
2018-04-24T03:50:27.132Z,87.51
2018-04-24T03:52:53.495Z,87.34
2018-04-24T03:55:19.886Z,86.24
2018-04-24T03:57:46.314Z,85.09
2018-04-24T04:00:12.822Z,83.63
2018-04-24T04:02:39.519Z,77.88
2018-04-24T04:05:06.026Z,72.80
2018-04-24T04:07:32.415Z,68.50
2018-04-24T04:09:58.795Z,67.32
2018-04-24T04:12:25.249Z,64.48
2018-04-24T04:14:51.615Z,62.78
2018-04-24T04:17:30.282Z,63.32
2018-04-24T04:20:09.146Z,61.91
2018-04-24T04:22:48.742Z,64.06
2018-04-24T04:25:15.241Z,62.04
2018-04-24T04:27:41.666Z,61.92
2018-04-24T04:30:08.103Z,62.05
2018-04-24T04:32:34.597Z,62.81
2018-04-24T04:35:01.052Z,57.84
2018-04-24T04:37:27.527Z,57.04
2018-04-24T04:39:54.000Z,57.96
2018-04-24T04:42:20.668Z,57.88
2018-04-24T04:44:47.270Z,59.00
2018-04-24T04:47:13.617Z,58.69
2018-04-24T04:49:40.025Z,58.64
2018-04-24T04:52:06.425Z,59.71
2018-04-24T04:54:32.775Z,60.96
2018-04-24T04:56:59.149Z,60.86
2018-04-24T04:59:25.676Z,60.81
2018-04-24T05:01:52.349Z,61.50
2018-04-24T05:04:19.149Z,59.71
2018-04-24T05:06:45.548Z,60.48
2018-04-24T05:09:13.082Z,64.00
2018-04-24T05:11:39.703Z,62.23
2018-04-24T05:14:06.225Z,60.28
2018-04-24T05:16:32.603Z,62.37
2018-04-24T05:18:59.103Z,60.81
2018-04-24T05:21:25.595Z,62.00
2018-04-24T05:23:51.995Z,63.23
2018-04-24T05:26:18.587Z,65.77
2018-04-24T05:28:46.024Z,65.28
2018-04-24T05:31:12.427Z,64.56
2018-04-24T05:33:38.797Z,61.95
2018-04-24T05:36:05.253Z,61.26
2018-04-24T05:38:31.702Z,61.81
2018-04-24T05:40:58.194Z,61.51
2018-04-24T05:43:24.619Z,61.95
2018-04-24T05:45:50.965Z,63.63
2018-04-24T05:48:17.397Z,62.97
2018-04-24T05:50:43.857Z,62.40
2018-04-24T05:53:10.348Z,62.23
2018-04-24T05:55:36.701Z,60.13
2018-04-24T05:58:03.152Z,58.85
2018-04-24T06:00:29.603Z,58.39
2018-04-24T06:02:56.173Z,58.46
2018-04-24T06:05:22.656Z,55.83
2018-04-24T06:07:49.003Z,59.71
2018-04-24T06:10:15.477Z,57.47
2018-04-24T06:12:41.985Z,56.53
2018-04-24T06:15:08.494Z,58.27
2018-04-24T06:17:34.953Z,59.55
2018-04-24T06:20:01.489Z,58.02
2018-04-24T06:22:27.970Z,57.75
2018-04-24T06:24:54.571Z,55.54
2018-04-24T06:27:20.990Z,57.57
2018-04-24T06:29:48.438Z,59.44
2018-04-24T06:32:14.894Z,57.21
2018-04-24T06:34:41.488Z,58.14
2018-04-24T06:37:07.894Z,56.32
2018-04-24T06:39:34.366Z,55.85
2018-04-24T06:42:00.902Z,54.95
2018-04-24T06:44:27.322Z,54.48
2018-04-24T06:46:53.803Z,55.60
2018-04-24T06:49:20.343Z,58.20
2018-04-24T06:51:46.762Z,60.50
2018-04-24T06:54:13.116Z,54.10
2018-04-24T06:56:39.613Z,57.36
2018-04-24T06:59:06.076Z,52.46
2018-04-24T07:01:32.505Z,53.33
2018-04-24T07:03:58.922Z,53.18
2018-04-24T07:06:25.364Z,55.36
2018-04-24T07:08:51.832Z,53.19
2018-04-24T07:11:18.333Z,55.09
2018-04-24T07:13:44.881Z,54.88
2018-04-24T07:16:11.604Z,54.29
2018-04-24T07:18:38.017Z,55.54
2018-04-24T07:21:05.453Z,53.71
2018-04-24T07:23:31.882Z,53.71
2018-04-24T07:25:58.300Z,52.25
2018-04-24T07:28:24.657Z,52.84
2018-04-24T07:30:51.139Z,53.40
2018-04-24T07:33:17.553Z,52.38
2018-04-24T07:35:44.016Z,55.56
2018-04-24T07:38:10.389Z,52.64
2018-04-24T07:40:37.040Z,51.28
2018-04-24T07:43:03.502Z,52.02
2018-04-24T07:45:29.914Z,52.28
2018-04-24T07:47:56.326Z,56.16
2018-04-24T07:50:22.796Z,52.03
2018-04-24T07:52:49.277Z,51.83
2018-04-24T07:55:15.752Z,52.11
2018-04-24T07:57:42.143Z,53.08
2018-04-24T08:00:09.184Z,52.98
2018-04-24T08:02:35.642Z,49.91
2018-04-24T08:05:02.057Z,50.16
2018-04-24T08:07:28.493Z,52.22
2018-04-24T08:09:54.977Z,49.91
2018-04-24T08:12:21.448Z,51.54
2018-04-24T08:14:47.818Z,52.67
2018-04-24T08:17:14.215Z,54.42
2018-04-24T08:19:40.704Z,54.73
2018-04-24T08:22:07.120Z,52.98
2018-04-24T08:24:33.579Z,51.49
2018-04-24T08:27:00.072Z,50.44
2018-04-24T08:29:26.548Z,51.75
2018-04-24T08:31:53.044Z,49.22
2018-04-24T08:34:19.426Z,48.68
2018-04-24T08:36:45.809Z,48.91
2018-04-24T08:39:12.426Z,48.30
2018-04-24T08:41:38.866Z,51.63
2018-04-24T08:44:05.290Z,46.97
2018-04-24T08:46:31.753Z,51.59
2018-04-24T08:48:58.436Z,48.87
2018-04-24T08:51:29.364Z,48.12
2018-04-24T08:53:55.834Z,45.17
2018-04-24T08:56:22.323Z,44.60
2018-04-24T08:58:48.846Z,45.96
2018-04-24T09:01:15.432Z,45.03
2018-04-24T09:03:41.894Z,45.22
2018-04-24T09:06:08.319Z,42.30
2018-04-24T09:08:34.697Z,41.04
2018-04-24T09:11:01.169Z,40.24
2018-04-24T09:13:27.537Z,39.24
2018-04-24T09:15:53.960Z,42.30
2018-04-24T09:18:20.300Z,40.86
2018-04-24T09:20:51.528Z,39.93
2018-04-24T09:23:17.929Z,39.89
2018-04-24T09:25:44.506Z,39.65
2018-04-24T09:28:10.904Z,38.64
2018-04-24T09:30:37.353Z,37.07
2018-04-24T09:33:03.802Z,39.33
2018-04-24T09:35:30.150Z,40.79
2018-04-24T09:37:56.589Z,38.28
2018-04-24T09:40:23.093Z,36.60
2018-04-24T09:42:49.459Z,39.84
2018-04-24T09:45:15.870Z,36.35
2018-04-24T09:47:42.257Z,37.48
2018-04-24T09:50:09.606Z,33.90
2018-04-24T09:52:36.034Z,37.34
2018-04-24T09:55:02.492Z,33.94
2018-04-24T09:57:28.932Z,34.16
2018-04-24T09:59:55.423Z,32.67
2018-04-24T10:02:21.955Z,33.34
2018-04-24T10:04:48.339Z,32.44
2018-04-24T10:07:14.821Z,34.72
2018-04-24T10:09:42.332Z,34.56
2018-04-24T10:12:08.809Z,30.70
2018-04-24T10:14:35.416Z,30.97
2018-04-24T10:17:01.987Z,33.33
2018-04-24T10:19:30.473Z,31.21
2018-04-24T10:21:56.965Z,26.81
2018-04-24T10:24:23.386Z,29.77
2018-04-24T10:26:49.748Z,30.35
2018-04-24T10:29:16.196Z,28.58
2018-04-24T10:31:44.673Z,27.16
2018-04-24T10:34:11.082Z,26.19
2018-04-24T10:36:37.485Z,25.96
2018-04-24T10:39:04.945Z,26.44
2018-04-24T10:41:32.384Z,25.41
2018-04-24T10:43:58.721Z,25.95
2018-04-24T10:46:25.102Z,24.74
2018-04-24T10:48:51.447Z,27.19
2018-04-24T10:51:19.881Z,27.57
2018-04-24T10:53:46.262Z,25.12
2018-04-24T10:56:12.622Z,23.05
2018-04-24T10:58:39.033Z,30.19
2018-04-24T11:01:05.572Z,28.20
2018-04-24T11:03:31.982Z,23.01
2018-04-24T11:05:58.336Z,25.55
2018-04-24T11:08:24.778Z,24.00
2018-04-24T11:10:51.306Z,23.29
2018-04-24T11:13:17.706Z,26.64
2018-04-24T11:15:44.085Z,22.44
2018-04-24T11:18:10.473Z,23.93
2018-04-24T11:20:36.904Z,27.49
2018-04-24T11:23:03.353Z,29.62
2018-04-24T11:25:29.941Z,30.02
2018-04-24T11:27:56.378Z,31.62
2018-04-24T11:30:25.026Z,28.67
2018-04-24T11:32:51.516Z,28.31
2018-04-24T11:35:17.945Z,31.40
2018-04-24T11:37:44.356Z,29.38
2018-04-24T11:40:10.784Z,30.68
2018-04-24T11:42:37.194Z,30.86
2018-04-24T11:45:03.667Z,32.80
2018-04-24T11:47:30.259Z,29.19
2018-04-24T11:49:56.713Z,25.22
2018-04-24T11:52:23.085Z,23.25
2018-04-24T11:54:50.085Z,28.06
2018-04-24T11:57:16.473Z,27.18
2018-04-24T11:59:43.088Z,30.72
2018-04-24T12:02:09.535Z,26.81
2018-04-24T12:04:35.882Z,33.62
2018-04-24T12:07:02.399Z,37.66
2018-04-24T12:09:28.952Z,39.19
2018-04-24T12:11:55.549Z,33.51
2018-04-24T12:14:21.957Z,32.35
2018-04-24T12:16:48.342Z,37.30
2018-04-24T12:19:14.840Z,28.05
2018-04-24T12:21:41.229Z,32.28
2018-04-24T12:24:07.708Z,25.16
2018-04-24T12:26:34.415Z,24.46
2018-04-24T12:29:00.946Z,26.75
2018-04-24T12:31:27.823Z,30.03
2018-04-24T12:33:54.504Z,27.22
2018-04-24T12:36:20.931Z,27.83
2018-04-24T12:38:47.441Z,28.10
2018-04-24T12:41:13.845Z,29.14
2018-04-24T12:43:40.440Z,29.39
2018-04-24T12:46:06.949Z,29.20
2018-04-24T12:48:33.378Z,33.19
2018-04-24T12:50:59.955Z,31.77
2018-04-24T12:53:26.409Z,35.30
2018-04-24T12:55:52.872Z,38.86
2018-04-24T12:58:19.344Z,41.53
2018-04-24T13:00:45.980Z,46.36
2018-04-24T13:03:12.410Z,48.61
2018-04-24T13:05:38.880Z,49.37
2018-04-24T13:08:05.430Z,38.60
2018-04-24T13:10:35.713Z,32.99
2018-04-24T13:13:02.167Z,32.79
2018-04-24T13:15:28.603Z,33.78
2018-04-24T13:17:55.034Z,31.11
2018-04-24T13:20:21.468Z,34.56
2018-04-24T13:22:47.889Z,30.70
2018-04-24T13:25:14.610Z,31.62
2018-04-24T13:27:41.018Z,35.61
2018-04-24T13:30:07.626Z,34.20
2018-04-24T13:32:34.026Z,33.95
2018-04-24T13:35:00.749Z,36.40
2018-04-24T13:37:27.375Z,38.50
2018-04-24T13:39:53.830Z,40.99
2018-04-24T13:42:20.195Z,36.35
2018-04-24T13:44:46.667Z,36.59
2018-04-24T13:47:13.133Z,29.67
2018-04-24T13:49:39.594Z,29.45
2018-04-24T13:52:06.176Z,31.07
2018-04-24T13:54:32.566Z,30.39
2018-04-24T13:56:58.995Z,32.64
2018-04-24T13:59:25.603Z,29.27
2018-04-24T14:01:52.112Z,27.75
2018-04-24T14:04:18.551Z,28.50
2018-04-24T14:06:44.981Z,30.05
2018-04-24T14:09:11.356Z,33.22
2018-04-24T14:11:37.860Z,31.86
2018-04-24T14:14:04.245Z,33.37
2018-04-24T14:16:30.671Z,36.48
2018-04-24T14:18:57.038Z,37.71
2018-04-24T14:21:23.604Z,37.95
2018-04-24T14:23:50.303Z,39.15
2018-04-24T14:26:16.683Z,39.86
2018-04-24T14:28:43.087Z,42.02
2018-04-24T14:31:09.486Z,41.63
2018-04-24T14:33:35.932Z,41.32
2018-04-24T14:36:02.439Z,29.05
2018-04-24T14:38:28.797Z,31.37
2018-04-24T14:40:55.284Z,35.08
2018-04-24T14:43:21.694Z,37.10
2018-04-24T14:45:48.158Z,42.58
2018-04-24T14:48:14.990Z,42.75
2018-04-24T14:50:41.653Z,48.20
2018-04-24T14:53:08.145Z,38.71
2018-04-24T14:55:35.582Z,40.69
2018-04-24T14:58:02.941Z,36.39
2018-04-24T15:00:29.437Z,32.22
2018-04-24T15:02:55.925Z,37.52
2018-04-24T15:05:22.434Z,35.88
2018-04-24T15:07:48.854Z,38.59
2018-04-24T15:10:15.507Z,28.82
2018-04-24T15:12:42.169Z,32.47
2018-04-24T15:15:08.808Z,34.20
2018-04-24T15:17:35.675Z,33.92
2018-04-24T15:20:02.645Z,31.82
2018-04-24T15:22:29.120Z,34.35
2018-04-24T15:24:55.641Z,29.62
2018-04-24T15:27:22.143Z,30.81
2018-04-24T15:29:48.613Z,34.08
2018-04-24T15:32:15.111Z,35.14
2018-04-24T15:34:41.552Z,33.51
2018-04-24T15:37:07.937Z,31.96
2018-04-24T15:39:34.409Z,32.00
2018-04-24T15:42:01.054Z,30.99
2018-04-24T15:44:27.418Z,35.01
2018-04-24T15:46:54.054Z,36.23
2018-04-24T15:49:20.585Z,42.15
2018-04-24T15:51:47.380Z,36.66
2018-04-24T15:54:14.074Z,37.37
2018-04-24T15:56:40.453Z,36.11
2018-04-24T15:59:06.820Z,38.76
2018-04-24T16:01:33.361Z,39.24
2018-04-24T16:04:00.578Z,37.25
2018-04-24T16:06:27.277Z,38.84
2018-04-24T16:08:54.178Z,38.99
2018-04-24T16:11:20.811Z,38.30
2018-04-24T16:13:47.306Z,39.56
2018-04-24T16:16:13.687Z,46.55
2018-04-24T16:18:40.117Z,51.30
2018-04-24T16:21:06.693Z,50.21
2018-04-24T16:23:33.149Z,51.14
2018-04-24T16:25:59.806Z,50.20
2018-04-24T16:28:26.217Z,51.83
2018-04-24T16:30:52.665Z,49.58
2018-04-24T16:33:19.170Z,45.75
2018-04-24T16:35:46.290Z,47.01
2018-04-24T16:38:12.987Z,47.83
2018-04-24T16:40:39.571Z,46.60
2018-04-24T16:43:06.033Z,44.92
2018-04-24T16:45:32.636Z,45.74
2018-04-24T16:47:59.488Z,46.72
2018-04-24T16:50:26.122Z,48.19
2018-04-24T16:52:52.763Z,50.29
2018-04-24T16:55:19.456Z,49.52
2018-04-24T16:57:46.081Z,49.53
2018-04-24T17:00:12.677Z,50.94
2018-04-24T17:02:39.475Z,53.26
2018-04-24T17:05:06.204Z,53.85
2018-04-24T17:07:33.227Z,54.28
2018-04-24T17:09:59.891Z,54.77
2018-04-24T17:12:26.563Z,54.59
2018-04-24T17:14:53.223Z,54.05
2018-04-24T17:17:19.897Z,54.13
2018-04-24T17:19:46.442Z,54.84
2018-04-24T17:22:12.940Z,54.87
2018-04-24T17:24:39.390Z,54.66
2018-04-24T17:27:05.861Z,53.76
2018-04-24T17:29:32.400Z,53.07
2018-04-24T17:31:58.871Z,52.19
2018-04-24T17:34:25.255Z,52.14
2018-04-24T17:36:51.643Z,52.24
2018-04-24T17:39:18.092Z,49.95
2018-04-24T17:41:44.605Z,49.88
2018-04-24T17:44:10.985Z,48.02
2018-04-24T17:46:37.453Z,52.04
2018-04-24T17:49:03.987Z,53.78
2018-04-24T17:51:30.518Z,54.65
2018-04-24T17:53:57.063Z,54.07
2018-04-24T17:56:23.875Z,54.92
2018-04-24T17:58:50.473Z,55.25
2018-04-24T18:01:17.304Z,56.17
2018-04-24T18:03:44.078Z,56.97
2018-04-24T18:06:10.725Z,56.49
2018-04-24T18:08:37.268Z,57.70
2018-04-24T18:11:03.828Z,56.78
2018-04-24T18:13:30.407Z,57.66
2018-04-24T18:15:56.830Z,56.67
2018-04-24T18:18:23.246Z,56.66
2018-04-24T18:20:50.003Z,56.67
2018-04-24T18:23:16.447Z,56.29
2018-04-24T18:25:42.891Z,53.68
2018-04-24T18:28:09.410Z,55.17
2018-04-24T18:30:35.969Z,57.28
2018-04-24T18:33:02.453Z,56.56
2018-04-24T18:35:28.860Z,56.69
2018-04-24T18:37:55.467Z,55.94
2018-04-24T18:40:22.237Z,55.94
2018-04-24T18:42:48.653Z,58.27
2018-04-24T18:45:15.127Z,57.66
2018-04-24T18:47:41.727Z,56.40
2018-04-24T18:50:08.286Z,56.36
2018-04-24T18:52:34.875Z,57.74
2018-04-24T18:55:01.429Z,57.10
2018-04-24T18:57:27.948Z,58.53
2018-04-24T18:59:54.504Z,58.07
2018-04-24T19:02:21.132Z,58.94
2018-04-24T19:04:47.711Z,60.44
2018-04-24T19:07:14.348Z,59.05
2018-04-24T19:09:40.883Z,59.03
2018-04-24T19:12:07.438Z,60.18
2018-04-24T19:14:33.899Z,59.80
2018-04-24T19:17:00.403Z,60.84
2018-04-24T19:19:26.898Z,60.72
2018-04-24T19:21:53.392Z,60.94
2018-04-24T19:24:25.891Z,60.84
2018-04-24T19:26:52.373Z,61.04
2018-04-24T19:29:18.817Z,60.98
2018-04-24T19:31:51.477Z,60.63
2018-04-24T19:34:17.936Z,60.39
2018-04-24T19:36:44.463Z,59.62
2018-04-24T19:39:17.016Z,59.60
2018-04-24T19:41:50.665Z,59.01
2018-04-24T19:44:17.151Z,60.99
2018-04-24T19:46:43.902Z,60.31
2018-04-24T19:49:16.568Z,60.06
2018-04-24T19:51:43.071Z,61.39
2018-04-24T19:54:10.093Z,61.38
2018-04-24T19:56:37.635Z,60.77
2018-04-24T19:59:04.396Z,62.01
2018-04-24T20:01:31.081Z,61.42
2018-04-24T20:03:57.667Z,61.81
2018-04-24T20:06:24.871Z,60.72
2018-04-24T20:08:51.388Z,60.91
2018-04-24T20:11:18.011Z,61.06
2018-04-24T20:13:44.724Z,62.82
2018-04-24T20:16:11.267Z,62.38
2018-04-24T20:18:37.908Z,62.29
2018-04-24T20:21:04.343Z,62.48
2018-04-24T20:23:30.968Z,63.28
2018-04-24T20:25:57.546Z,66.09
2018-04-24T20:28:23.980Z,65.09
2018-04-24T20:30:50.806Z,64.97
2018-04-24T20:33:17.326Z,66.37
2018-04-24T20:35:43.748Z,67.15
2018-04-24T20:38:10.312Z,67.05
2018-04-24T20:40:37.426Z,65.98
2018-04-24T20:43:03.850Z,66.59
2018-04-24T20:45:30.231Z,64.99
2018-04-24T20:47:56.632Z,67.77
2018-04-24T20:50:23.017Z,66.98
2018-04-24T20:52:49.497Z,68.04
2018-04-24T20:55:15.853Z,68.42
2018-04-24T20:57:42.224Z,69.48
2018-04-24T21:00:08.581Z,70.34
2018-04-24T21:02:35.129Z,70.65
2018-04-24T21:05:01.722Z,70.78
2018-04-24T21:07:28.238Z,71.02
2018-04-24T21:09:54.667Z,72.14
2018-04-24T21:12:21.159Z,72.24
2018-04-24T21:14:47.630Z,71.71
2018-04-24T21:17:14.130Z,71.73
2018-04-24T21:19:40.631Z,72.32
2018-04-24T21:22:10.341Z,71.37
2018-04-24T21:24:36.904Z,70.59
2018-04-24T21:27:03.303Z,70.25
2018-04-24T21:29:29.672Z,71.26
2018-04-24T21:31:56.159Z,71.71
2018-04-24T21:34:22.528Z,68.58
2018-04-24T21:36:48.941Z,70.49
2018-04-24T21:39:15.441Z,71.97
2018-04-24T21:41:41.856Z,71.29
2018-04-24T21:44:08.205Z,73.70
2018-04-24T21:46:34.625Z,70.60
2018-04-24T21:49:00.989Z,71.89
2018-04-24T21:51:27.430Z,73.51
2018-04-24T21:53:53.885Z,72.97
2018-04-24T21:56:20.339Z,74.47
2018-04-24T21:58:49.806Z,70.19
2018-04-24T22:01:19.175Z,68.86
2018-04-24T22:03:45.563Z,68.98
2018-04-24T22:06:11.926Z,69.67
2018-04-24T22:08:38.406Z,69.73
2018-04-24T22:11:06.659Z,69.79
2018-04-24T22:13:33.130Z,69.67
2018-04-24T22:15:59.646Z,71.32
2018-04-24T22:18:26.089Z,70.84
2018-04-24T22:20:52.507Z,71.94
2018-04-24T22:23:18.873Z,72.31
2018-04-24T22:25:46.160Z,72.33
2018-04-24T22:28:13.477Z,73.49
2018-04-24T22:30:40.649Z,75.08
2018-04-24T22:33:07.706Z,74.32
2018-04-24T22:35:34.168Z,74.68
2018-04-24T22:38:00.606Z,74.72
2018-04-24T22:40:27.025Z,75.57
2018-04-24T22:42:54.353Z,76.14
2018-04-24T22:45:20.687Z,74.94
2018-04-24T22:47:47.029Z,75.44
2018-04-24T22:50:15.200Z,76.82
2018-04-24T22:52:41.705Z,77.01
2018-04-24T22:55:09.252Z,75.51
2018-04-24T22:57:35.624Z,74.59
2018-04-24T23:00:01.999Z,75.92
2018-04-24T23:02:28.445Z,77.08
2018-04-24T23:04:55.050Z,76.35
2018-04-24T23:07:22.914Z,73.55
2018-04-24T23:09:52.988Z,72.50
2018-04-24T23:12:31.539Z,72.19
2018-04-24T23:15:10.688Z,70.32
2018-04-24T23:17:49.393Z,71.02
2018-04-24T23:20:17.109Z,70.72
2018-04-24T23:22:44.157Z,68.99
2018-04-24T23:25:12.540Z,69.06
2018-04-24T23:27:39.012Z,69.44
2018-04-24T23:30:05.979Z,68.75
2018-04-24T23:32:32.399Z,68.96
2018-04-24T23:34:59.668Z,69.69
2018-04-24T23:37:26.935Z,69.89
2018-04-24T23:39:54.249Z,71.70
2018-04-24T23:42:20.821Z,71.50
2018-04-24T23:44:47.175Z,72.03
2018-04-24T23:47:13.669Z,71.37
2018-04-24T23:49:46.111Z,74.18
2018-04-24T23:52:12.689Z,73.80
2018-04-24T23:54:39.138Z,75.48
2018-04-24T23:57:11.939Z,75.97
2018-04-24T23:59:44.281Z,76.17
